sensor_id;sensor_type;location;lat;lon;timestamp;P1;durP1;ratioP1;P2;durP2;ratioP2
61116;SDS011;47002;50.856;6.580;2022-09-21T00:00:50;0.00;;;0.00;;
61116;SDS011;47002;50.856;6.580;2022-09-21T00:03:17;0.00;;;0.00;;
61116;SDS011;47002;50.856;6.580;2022-09-21T00:05:43;0.00;;;0.00;;
61116;SDS011;47002;50.856;6.580;2022-09-21T00:08:09;0.00;;;0.00;;
61116;SDS011;47002;50.856;6.580;2022-09-21T00:10:37;0.00;;;0.00;;
61116;SDS011;47002;50.856;6.580;2022-09-21T00:13:03;0.00;;;0.00;;
61116;SDS011;47002;50.856;6.580;2022-09-21T00:15:29;0.00;;;0.00;;
61116;SDS011;47002;50.856;6.580;2022-09-21T00:17:56;0.00;;;0.00;;
61116;SDS011;47002;50.856;6.580;2022-09-21T00:20:24;0.00;;;0.00;;
61116;SDS011;47002;50.856;6.580;2022-09-21T00:22:51;0.00;;;0.00;;
61116;SDS011;47002;50.856;6.580;2022-09-21T00:25:17;0.00;;;0.00;;
61116;SDS011;47002;50.856;6.580;2022-09-21T00:27:43;0.00;;;0.00;;
61116;SDS011;47002;50.856;6.580;2022-09-21T00:30:10;0.00;;;0.00;;
61116;SDS011;47002;50.856;6.580;2022-09-21T00:32:36;0.00;;;0.00;;
61116;SDS011;47002;50.856;6.580;2022-09-21T00:35:03;0.00;;;0.00;;
61116;SDS011;47002;50.856;6.580;2022-09-21T00:37:31;0.00;;;0.00;;
61116;SDS011;47002;50.856;6.580;2022-09-21T00:39:57;0.00;;;0.00;;
61116;SDS011;47002;50.856;6.580;2022-09-21T00:42:24;0.00;;;0.00;;
61116;SDS011;47002;50.856;6.580;2022-09-21T00:44:52;0.00;;;0.00;;
61116;SDS011;47002;50.856;6.580;2022-09-21T00:47:18;0.00;;;0.00;;
61116;SDS011;47002;50.856;6.580;2022-09-21T00:49:47;0.00;;;0.00;;
61116;SDS011;47002;50.856;6.580;2022-09-21T00:52:16;0.00;;;0.00;;
61116;SDS011;47002;50.856;6.580;2022-09-21T00:54:46;0.00;;;0.00;;
61116;SDS011;47002;50.856;6.580;2022-09-21T00:57:15;0.00;;;0.00;;
61116;SDS011;47002;50.856;6.580;2022-09-21T00:59:43;0.00;;;0.00;;
61116;SDS011;47002;50.856;6.580;2022-09-21T01:02:09;0.00;;;0.00;;
61116;SDS011;47002;50.856;6.580;2022-09-21T01:04:36;0.00;;;0.00;;
61116;SDS011;47002;50.856;6.580;2022-09-21T01:07:02;0.00;;;0.00;;
61116;SDS011;47002;50.856;6.580;2022-09-21T01:09:35;0.00;;;0.00;;
61116;SDS011;47002;50.856;6.580;2022-09-21T01:12:05;0.00;;;0.00;;
61116;SDS011;47002;50.856;6.580;2022-09-21T01:14:48;0.00;;;0.00;;
61116;SDS011;47002;50.856;6.580;2022-09-21T01:17:23;0.00;;;0.00;;
61116;SDS011;47002;50.856;6.580;2022-09-21T01:20:06;0.00;;;0.00;;
61116;SDS011;47002;50.856;6.580;2022-09-21T01:22:53;0.00;;;0.00;;
61116;SDS011;47002;50.856;6.580;2022-09-21T01:25:33;0.00;;;0.00;;
61116;SDS011;47002;50.856;6.580;2022-09-21T01:28:10;0.00;;;0.00;;
61116;SDS011;47002;50.856;6.580;2022-09-21T01:30:50;0.00;;;0.00;;
61116;SDS011;47002;50.856;6.580;2022-09-21T01:33:20;0.00;;;0.00;;
61116;SDS011;47002;50.856;6.580;2022-09-21T01:35:51;0.00;;;0.00;;
61116;SDS011;47002;50.856;6.580;2022-09-21T01:38:20;0.00;;;0.00;;
61116;SDS011;47002;50.856;6.580;2022-09-21T01:40:49;0.00;;;0.00;;
61116;SDS011;47002;50.856;6.580;2022-09-21T01:43:17;0.00;;;0.00;;
61116;SDS011;47002;50.856;6.580;2022-09-21T01:45:48;0.00;;;0.00;;
61116;SDS011;47002;50.856;6.580;2022-09-21T01:48:16;0.00;;;0.00;;
61116;SDS011;47002;50.856;6.580;2022-09-21T01:50:44;0.00;;;0.00;;
61116;SDS011;47002;50.856;6.580;2022-09-21T01:53:15;0.00;;;0.00;;
61116;SDS011;47002;50.856;6.580;2022-09-21T01:55:47;0.00;;;0.00;;
61116;SDS011;47002;50.856;6.580;2022-09-21T01:58:17;0.00;;;0.00;;
61116;SDS011;47002;50.856;6.580;2022-09-21T02:00:47;0.00;;;0.00;;
61116;SDS011;47002;50.856;6.580;2022-09-21T02:03:19;0.00;;;0.00;;
61116;SDS011;47002;50.856;6.580;2022-09-21T02:05:49;0.00;;;0.00;;
61116;SDS011;47002;50.856;6.580;2022-09-21T02:08:14;0.00;;;0.00;;
61116;SDS011;47002;50.856;6.580;2022-09-21T02:10:41;0.00;;;0.00;;
61116;SDS011;47002;50.856;6.580;2022-09-21T02:13:11;0.00;;;0.00;;
61116;SDS011;47002;50.856;6.580;2022-09-21T02:15:42;0.00;;;0.00;;
61116;SDS011;47002;50.856;6.580;2022-09-21T02:18:30;0.00;;;0.00;;
61116;SDS011;47002;50.856;6.580;2022-09-21T02:21:07;0.00;;;0.00;;
61116;SDS011;47002;50.856;6.580;2022-09-21T02:23:41;0.00;;;0.00;;
61116;SDS011;47002;50.856;6.580;2022-09-21T02:26:13;0.00;;;0.00;;
61116;SDS011;47002;50.856;6.580;2022-09-21T02:28:42;0.00;;;0.00;;
61116;SDS011;47002;50.856;6.580;2022-09-21T02:31:17;0.00;;;0.00;;
61116;SDS011;47002;50.856;6.580;2022-09-21T02:33:51;0.00;;;0.00;;
61116;SDS011;47002;50.856;6.580;2022-09-21T02:36:24;0.00;;;0.00;;
61116;SDS011;47002;50.856;6.580;2022-09-21T02:38:55;0.00;;;0.00;;
61116;SDS011;47002;50.856;6.580;2022-09-21T02:41:29;0.00;;;0.00;;
61116;SDS011;47002;50.856;6.580;2022-09-21T02:44:00;0.00;;;0.00;;
61116;SDS011;47002;50.856;6.580;2022-09-21T02:46:33;0.00;;;0.00;;
61116;SDS011;47002;50.856;6.580;2022-09-21T02:51:30;0.00;;;0.00;;
61116;SDS011;47002;50.856;6.580;2022-09-21T02:54:01;0.00;;;0.00;;
61116;SDS011;47002;50.856;6.580;2022-09-21T02:56:29;0.00;;;0.00;;
61116;SDS011;47002;50.856;6.580;2022-09-21T02:58:56;0.00;;;0.00;;
61116;SDS011;47002;50.856;6.580;2022-09-21T03:01:30;0.00;;;0.00;;
61116;SDS011;47002;50.856;6.580;2022-09-21T03:03:56;0.00;;;0.00;;
61116;SDS011;47002;50.856;6.580;2022-09-21T03:06:22;0.00;;;0.00;;
61116;SDS011;47002;50.856;6.580;2022-09-21T03:08:48;0.00;;;0.00;;
61116;SDS011;47002;50.856;6.580;2022-09-21T03:11:15;0.00;;;0.00;;
61116;SDS011;47002;50.856;6.580;2022-09-21T03:13:41;0.00;;;0.00;;
61116;SDS011;47002;50.856;6.580;2022-09-21T03:16:07;0.00;;;0.00;;
61116;SDS011;47002;50.856;6.580;2022-09-21T03:18:34;0.00;;;0.00;;
61116;SDS011;47002;50.856;6.580;2022-09-21T03:21:00;0.03;;;0.03;;
61116;SDS011;47002;50.856;6.580;2022-09-21T03:23:25;0.00;;;0.00;;
61116;SDS011;47002;50.856;6.580;2022-09-21T03:25:51;0.00;;;0.00;;
61116;SDS011;47002;50.856;6.580;2022-09-21T03:28:17;0.00;;;0.00;;
61116;SDS011;47002;50.856;6.580;2022-09-21T03:30:43;0.00;;;0.00;;
61116;SDS011;47002;50.856;6.580;2022-09-21T03:33:09;0.00;;;0.00;;
61116;SDS011;47002;50.856;6.580;2022-09-21T03:35:36;0.00;;;0.00;;
61116;SDS011;47002;50.856;6.580;2022-09-21T03:38:02;0.00;;;0.00;;
61116;SDS011;47002;50.856;6.580;2022-09-21T03:40:27;0.00;;;0.00;;
61116;SDS011;47002;50.856;6.580;2022-09-21T03:42:54;0.00;;;0.00;;
61116;SDS011;47002;50.856;6.580;2022-09-21T03:45:20;0.00;;;0.00;;
61116;SDS011;47002;50.856;6.580;2022-09-21T03:47:46;0.00;;;0.00;;
61116;SDS011;47002;50.856;6.580;2022-09-21T03:50:12;0.00;;;0.00;;
61116;SDS011;47002;50.856;6.580;2022-09-21T03:52:40;0.00;;;0.00;;
61116;SDS011;47002;50.856;6.580;2022-09-21T03:55:06;0.00;;;0.00;;
61116;SDS011;47002;50.856;6.580;2022-09-21T03:57:33;0.00;;;0.00;;
61116;SDS011;47002;50.856;6.580;2022-09-21T04:00:00;0.00;;;0.00;;
61116;SDS011;47002;50.856;6.580;2022-09-21T04:02:25;0.00;;;0.00;;
61116;SDS011;47002;50.856;6.580;2022-09-21T04:04:51;0.00;;;0.00;;
61116;SDS011;47002;50.856;6.580;2022-09-21T04:07:17;0.00;;;0.00;;
61116;SDS011;47002;50.856;6.580;2022-09-21T04:09:44;0.00;;;0.00;;
61116;SDS011;47002;50.856;6.580;2022-09-21T04:12:09;0.00;;;0.00;;
61116;SDS011;47002;50.856;6.580;2022-09-21T04:14:35;0.00;;;0.00;;
61116;SDS011;47002;50.856;6.580;2022-09-21T04:17:01;0.00;;;0.00;;
61116;SDS011;47002;50.856;6.580;2022-09-21T04:19:27;0.00;;;0.00;;
61116;SDS011;47002;50.856;6.580;2022-09-21T04:21:52;0.00;;;0.00;;
61116;SDS011;47002;50.856;6.580;2022-09-21T04:24:18;0.00;;;0.00;;
61116;SDS011;47002;50.856;6.580;2022-09-21T04:26:45;0.00;;;0.00;;
61116;SDS011;47002;50.856;6.580;2022-09-21T04:29:11;0.00;;;0.00;;
61116;SDS011;47002;50.856;6.580;2022-09-21T04:31:38;0.00;;;0.00;;
61116;SDS011;47002;50.856;6.580;2022-09-21T04:34:04;0.00;;;0.00;;
61116;SDS011;47002;50.856;6.580;2022-09-21T04:36:29;0.00;;;0.00;;
61116;SDS011;47002;50.856;6.580;2022-09-21T04:38:55;0.00;;;0.00;;
61116;SDS011;47002;50.856;6.580;2022-09-21T04:41:23;0.00;;;0.00;;
61116;SDS011;47002;50.856;6.580;2022-09-21T04:43:50;0.00;;;0.00;;
61116;SDS011;47002;50.856;6.580;2022-09-21T04:46:19;0.00;;;0.00;;
61116;SDS011;47002;50.856;6.580;2022-09-21T04:48:45;0.00;;;0.00;;
61116;SDS011;47002;50.856;6.580;2022-09-21T04:51:11;0.00;;;0.00;;
61116;SDS011;47002;50.856;6.580;2022-09-21T04:53:38;0.00;;;0.00;;
61116;SDS011;47002;50.856;6.580;2022-09-21T04:56:07;0.00;;;0.00;;
61116;SDS011;47002;50.856;6.580;2022-09-21T04:58:33;0.00;;;0.00;;
61116;SDS011;47002;50.856;6.580;2022-09-21T05:01:01;0.00;;;0.00;;
61116;SDS011;47002;50.856;6.580;2022-09-21T05:03:26;0.00;;;0.00;;
61116;SDS011;47002;50.856;6.580;2022-09-21T05:05:53;0.00;;;0.00;;
61116;SDS011;47002;50.856;6.580;2022-09-21T05:08:20;0.00;;;0.00;;
61116;SDS011;47002;50.856;6.580;2022-09-21T05:10:46;0.00;;;0.00;;
61116;SDS011;47002;50.856;6.580;2022-09-21T05:13:12;0.00;;;0.00;;
61116;SDS011;47002;50.856;6.580;2022-09-21T05:15:38;0.00;;;0.00;;
61116;SDS011;47002;50.856;6.580;2022-09-21T05:18:05;0.00;;;0.00;;
61116;SDS011;47002;50.856;6.580;2022-09-21T05:20:30;0.10;;;0.10;;
61116;SDS011;47002;50.856;6.580;2022-09-21T05:22:58;0.00;;;0.00;;
61116;SDS011;47002;50.856;6.580;2022-09-21T05:25:24;0.00;;;0.00;;
61116;SDS011;47002;50.856;6.580;2022-09-21T05:27:49;0.00;;;0.00;;
61116;SDS011;47002;50.856;6.580;2022-09-21T05:30:15;0.00;;;0.00;;
61116;SDS011;47002;50.856;6.580;2022-09-21T05:32:43;0.00;;;0.00;;
61116;SDS011;47002;50.856;6.580;2022-09-21T05:35:17;0.00;;;0.00;;
61116;SDS011;47002;50.856;6.580;2022-09-21T05:37:51;0.00;;;0.00;;
61116;SDS011;47002;50.856;6.580;2022-09-21T05:40:21;0.00;;;0.00;;
61116;SDS011;47002;50.856;6.580;2022-09-21T05:42:47;0.00;;;0.00;;
61116;SDS011;47002;50.856;6.580;2022-09-21T05:45:14;0.00;;;0.00;;
61116;SDS011;47002;50.856;6.580;2022-09-21T05:47:50;0.00;;;0.00;;
61116;SDS011;47002;50.856;6.580;2022-09-21T05:50:27;0.00;;;0.00;;
61116;SDS011;47002;50.856;6.580;2022-09-21T05:53:11;0.00;;;0.00;;
61116;SDS011;47002;50.856;6.580;2022-09-21T05:55:46;0.00;;;0.00;;
61116;SDS011;47002;50.856;6.580;2022-09-21T05:58:20;0.00;;;0.00;;
61116;SDS011;47002;50.856;6.580;2022-09-21T06:00:58;0.00;;;0.00;;
61116;SDS011;47002;50.856;6.580;2022-09-21T06:03:47;0.00;;;0.00;;
61116;SDS011;47002;50.856;6.580;2022-09-21T06:06:14;0.00;;;0.00;;
61116;SDS011;47002;50.856;6.580;2022-09-21T06:08:44;0.00;;;0.00;;
61116;SDS011;47002;50.856;6.580;2022-09-21T06:11:09;0.00;;;0.00;;
61116;SDS011;47002;50.856;6.580;2022-09-21T06:13:35;0.00;;;0.00;;
61116;SDS011;47002;50.856;6.580;2022-09-21T06:16:01;0.00;;;0.00;;
61116;SDS011;47002;50.856;6.580;2022-09-21T06:18:27;0.00;;;0.00;;
61116;SDS011;47002;50.856;6.580;2022-09-21T06:20:53;0.00;;;0.00;;
61116;SDS011;47002;50.856;6.580;2022-09-21T06:23:20;0.00;;;0.00;;
61116;SDS011;47002;50.856;6.580;2022-09-21T06:25:49;0.00;;;0.00;;
61116;SDS011;47002;50.856;6.580;2022-09-21T06:28:15;0.00;;;0.00;;
61116;SDS011;47002;50.856;6.580;2022-09-21T06:30:41;0.00;;;0.00;;
61116;SDS011;47002;50.856;6.580;2022-09-21T06:33:07;0.00;;;0.00;;
61116;SDS011;47002;50.856;6.580;2022-09-21T06:35:33;0.03;;;0.00;;
61116;SDS011;47002;50.856;6.580;2022-09-21T06:38:00;0.00;;;0.00;;
61116;SDS011;47002;50.856;6.580;2022-09-21T06:40:29;0.00;;;0.00;;
61116;SDS011;47002;50.856;6.580;2022-09-21T06:42:55;0.00;;;0.00;;
61116;SDS011;47002;50.856;6.580;2022-09-21T06:45:22;0.00;;;0.00;;
61116;SDS011;47002;50.856;6.580;2022-09-21T06:47:47;0.00;;;0.00;;
61116;SDS011;47002;50.856;6.580;2022-09-21T06:50:13;0.00;;;0.00;;
61116;SDS011;47002;50.856;6.580;2022-09-21T06:52:39;0.00;;;0.00;;
61116;SDS011;47002;50.856;6.580;2022-09-21T06:55:05;0.00;;;0.00;;
61116;SDS011;47002;50.856;6.580;2022-09-21T06:57:32;0.00;;;0.00;;
61116;SDS011;47002;50.856;6.580;2022-09-21T06:59:58;0.00;;;0.00;;
61116;SDS011;47002;50.856;6.580;2022-09-21T07:02:23;0.00;;;0.00;;
61116;SDS011;47002;50.856;6.580;2022-09-21T07:04:49;0.00;;;0.00;;
61116;SDS011;47002;50.856;6.580;2022-09-21T07:07:15;0.00;;;0.00;;
61116;SDS011;47002;50.856;6.580;2022-09-21T07:09:40;0.00;;;0.00;;
61116;SDS011;47002;50.856;6.580;2022-09-21T07:12:06;0.00;;;0.00;;
61116;SDS011;47002;50.856;6.580;2022-09-21T07:14:33;0.00;;;0.00;;
61116;SDS011;47002;50.856;6.580;2022-09-21T07:16:59;0.00;;;0.00;;
61116;SDS011;47002;50.856;6.580;2022-09-21T07:19:24;0.00;;;0.00;;
61116;SDS011;47002;50.856;6.580;2022-09-21T07:21:51;0.00;;;0.00;;
61116;SDS011;47002;50.856;6.580;2022-09-21T07:24:17;0.00;;;0.00;;
61116;SDS011;47002;50.856;6.580;2022-09-21T07:26:43;0.00;;;0.00;;
61116;SDS011;47002;50.856;6.580;2022-09-21T07:29:08;0.00;;;0.00;;
61116;SDS011;47002;50.856;6.580;2022-09-21T07:31:35;0.00;;;0.00;;
61116;SDS011;47002;50.856;6.580;2022-09-21T07:34:01;0.00;;;0.00;;
61116;SDS011;47002;50.856;6.580;2022-09-21T07:36:27;0.00;;;0.00;;
61116;SDS011;47002;50.856;6.580;2022-09-21T07:38:53;0.00;;;0.00;;
61116;SDS011;47002;50.856;6.580;2022-09-21T07:41:19;0.00;;;0.00;;
61116;SDS011;47002;50.856;6.580;2022-09-21T07:43:45;0.00;;;0.00;;
61116;SDS011;47002;50.856;6.580;2022-09-21T07:46:11;0.00;;;0.00;;
61116;SDS011;47002;50.856;6.580;2022-09-21T07:48:39;0.00;;;0.00;;
61116;SDS011;47002;50.856;6.580;2022-09-21T07:51:06;0.00;;;0.00;;
61116;SDS011;47002;50.856;6.580;2022-09-21T07:53:33;0.00;;;0.00;;
61116;SDS011;47002;50.856;6.580;2022-09-21T07:55:59;0.00;;;0.00;;
61116;SDS011;47002;50.856;6.580;2022-09-21T07:58:26;0.00;;;0.00;;
61116;SDS011;47002;50.856;6.580;2022-09-21T08:00:51;0.00;;;0.00;;
61116;SDS011;47002;50.856;6.580;2022-09-21T08:03:17;0.00;;;0.00;;
61116;SDS011;47002;50.856;6.580;2022-09-21T08:05:44;0.00;;;0.00;;
61116;SDS011;47002;50.856;6.580;2022-09-21T08:08:10;0.00;;;0.00;;
61116;SDS011;47002;50.856;6.580;2022-09-21T08:10:35;0.00;;;0.00;;
61116;SDS011;47002;50.856;6.580;2022-09-21T08:13:01;0.00;;;0.00;;
61116;SDS011;47002;50.856;6.580;2022-09-21T08:15:27;0.00;;;0.00;;
61116;SDS011;47002;50.856;6.580;2022-09-21T08:17:52;0.00;;;0.00;;
61116;SDS011;47002;50.856;6.580;2022-09-21T08:20:18;0.00;;;0.00;;
61116;SDS011;47002;50.856;6.580;2022-09-21T08:22:46;0.00;;;0.00;;
61116;SDS011;47002;50.856;6.580;2022-09-21T08:25:11;0.00;;;0.00;;
61116;SDS011;47002;50.856;6.580;2022-09-21T08:27:37;0.00;;;0.00;;
61116;SDS011;47002;50.856;6.580;2022-09-21T08:30:03;0.00;;;0.00;;
61116;SDS011;47002;50.856;6.580;2022-09-21T08:32:30;0.00;;;0.00;;
61116;SDS011;47002;50.856;6.580;2022-09-21T08:34:55;0.00;;;0.00;;
61116;SDS011;47002;50.856;6.580;2022-09-21T08:37:21;0.00;;;0.00;;
61116;SDS011;47002;50.856;6.580;2022-09-21T08:39:48;0.10;;;0.00;;
61116;SDS011;47002;50.856;6.580;2022-09-21T08:42:18;0.00;;;0.00;;
61116;SDS011;47002;50.856;6.580;2022-09-21T08:44:58;0.00;;;0.00;;
61116;SDS011;47002;50.856;6.580;2022-09-21T08:47:27;0.00;;;0.00;;
61116;SDS011;47002;50.856;6.580;2022-09-21T08:50:01;0.00;;;0.00;;
61116;SDS011;47002;50.856;6.580;2022-09-21T08:52:29;0.00;;;0.00;;
61116;SDS011;47002;50.856;6.580;2022-09-21T08:54:58;0.00;;;0.00;;
61116;SDS011;47002;50.856;6.580;2022-09-21T08:57:28;0.00;;;0.00;;
61116;SDS011;47002;50.856;6.580;2022-09-21T08:59:55;0.00;;;0.00;;
61116;SDS011;47002;50.856;6.580;2022-09-21T09:02:30;0.00;;;0.00;;
61116;SDS011;47002;50.856;6.580;2022-09-21T09:05:03;0.00;;;0.00;;
61116;SDS011;47002;50.856;6.580;2022-09-21T09:07:50;0.00;;;0.00;;
61116;SDS011;47002;50.856;6.580;2022-09-21T09:13:00;0.00;;;0.00;;
61116;SDS011;47002;50.856;6.580;2022-09-21T09:15:52;0.00;;;0.00;;
61116;SDS011;47002;50.856;6.580;2022-09-21T09:18:28;0.00;;;0.00;;
61116;SDS011;47002;50.856;6.580;2022-09-21T09:21:02;0.00;;;0.00;;
61116;SDS011;47002;50.856;6.580;2022-09-21T09:23:31;0.00;;;0.00;;
61116;SDS011;47002;50.856;6.580;2022-09-21T09:26:03;0.00;;;0.00;;
61116;SDS011;47002;50.856;6.580;2022-09-21T09:28:34;0.00;;;0.00;;
61116;SDS011;47002;50.856;6.580;2022-09-21T09:33:39;0.00;;;0.00;;
61116;SDS011;47002;50.856;6.580;2022-09-21T09:36:10;0.00;;;0.00;;
61116;SDS011;47002;50.856;6.580;2022-09-21T09:38:37;0.00;;;0.00;;
61116;SDS011;47002;50.856;6.580;2022-09-21T09:41:11;0.00;;;0.00;;
61116;SDS011;47002;50.856;6.580;2022-09-21T09:43:56;0.00;;;0.00;;
61116;SDS011;47002;50.856;6.580;2022-09-21T09:46:36;0.00;;;0.00;;
61116;SDS011;47002;50.856;6.580;2022-09-21T09:49:13;0.00;;;0.00;;
61116;SDS011;47002;50.856;6.580;2022-09-21T09:51:49;0.00;;;0.00;;
61116;SDS011;47002;50.856;6.580;2022-09-21T09:54:16;0.00;;;0.00;;
61116;SDS011;47002;50.856;6.580;2022-09-21T09:56:45;0.00;;;0.00;;
61116;SDS011;47002;50.856;6.580;2022-09-21T09:59:12;0.00;;;0.00;;
61116;SDS011;47002;50.856;6.580;2022-09-21T10:01:56;0.00;;;0.00;;
61116;SDS011;47002;50.856;6.580;2022-09-21T10:04:24;0.00;;;0.00;;
61116;SDS011;47002;50.856;6.580;2022-09-21T10:06:50;0.00;;;0.00;;
61116;SDS011;47002;50.856;6.580;2022-09-21T10:09:21;0.00;;;0.00;;
61116;SDS011;47002;50.856;6.580;2022-09-21T10:11:50;0.00;;;0.00;;
61116;SDS011;47002;50.856;6.580;2022-09-21T10:14:17;0.00;;;0.00;;
61116;SDS011;47002;50.856;6.580;2022-09-21T10:16:45;0.00;;;0.00;;
61116;SDS011;47002;50.856;6.580;2022-09-21T10:19:14;0.00;;;0.00;;
61116;SDS011;47002;50.856;6.580;2022-09-21T10:21:42;0.00;;;0.00;;
61116;SDS011;47002;50.856;6.580;2022-09-21T10:24:13;0.00;;;0.00;;
61116;SDS011;47002;50.856;6.580;2022-09-21T10:26:46;0.00;;;0.00;;
61116;SDS011;47002;50.856;6.580;2022-09-21T10:29:18;0.00;;;0.00;;
61116;SDS011;47002;50.856;6.580;2022-09-21T10:31:53;0.00;;;0.00;;
61116;SDS011;47002;50.856;6.580;2022-09-21T10:34:20;0.00;;;0.00;;
61116;SDS011;47002;50.856;6.580;2022-09-21T10:36:48;0.00;;;0.00;;
61116;SDS011;47002;50.856;6.580;2022-09-21T10:39:16;0.00;;;0.00;;
61116;SDS011;47002;50.856;6.580;2022-09-21T10:41:46;0.00;;;0.00;;
61116;SDS011;47002;50.856;6.580;2022-09-21T10:44:14;0.00;;;0.00;;
61116;SDS011;47002;50.856;6.580;2022-09-21T10:46:43;0.00;;;0.00;;
61116;SDS011;47002;50.856;6.580;2022-09-21T10:49:12;0.00;;;0.00;;
61116;SDS011;47002;50.856;6.580;2022-09-21T10:51:43;0.00;;;0.00;;
61116;SDS011;47002;50.856;6.580;2022-09-21T10:54:13;0.00;;;0.00;;
61116;SDS011;47002;50.856;6.580;2022-09-21T10:56:54;0.00;;;0.00;;
61116;SDS011;47002;50.856;6.580;2022-09-21T10:59:24;0.00;;;0.00;;
61116;SDS011;47002;50.856;6.580;2022-09-21T11:01:53;0.00;;;0.00;;
61116;SDS011;47002;50.856;6.580;2022-09-21T11:07:09;0.00;;;0.00;;
61116;SDS011;47002;50.856;6.580;2022-09-21T11:09:40;0.00;;;0.00;;
61116;SDS011;47002;50.856;6.580;2022-09-21T11:12:16;0.00;;;0.00;;
61116;SDS011;47002;50.856;6.580;2022-09-21T11:14:55;0.00;;;0.00;;
61116;SDS011;47002;50.856;6.580;2022-09-21T11:20:01;0.00;;;0.00;;
61116;SDS011;47002;50.856;6.580;2022-09-21T11:22:34;0.00;;;0.00;;
61116;SDS011;47002;50.856;6.580;2022-09-21T11:25:21;0.00;;;0.00;;
61116;SDS011;47002;50.856;6.580;2022-09-21T11:27:55;0.00;;;0.00;;
61116;SDS011;47002;50.856;6.580;2022-09-21T11:30:26;0.00;;;0.00;;
61116;SDS011;47002;50.856;6.580;2022-09-21T11:33:05;0.00;;;0.00;;
61116;SDS011;47002;50.856;6.580;2022-09-21T11:35:44;0.00;;;0.00;;
61116;SDS011;47002;50.856;6.580;2022-09-21T11:38:17;0.00;;;0.00;;
61116;SDS011;47002;50.856;6.580;2022-09-21T11:41:00;0.00;;;0.00;;
61116;SDS011;47002;50.856;6.580;2022-09-21T11:43:44;0.00;;;0.00;;
61116;SDS011;47002;50.856;6.580;2022-09-21T11:46:26;0.00;;;0.00;;
61116;SDS011;47002;50.856;6.580;2022-09-21T11:49:02;0.00;;;0.00;;
61116;SDS011;47002;50.856;6.580;2022-09-21T11:51:53;0.00;;;0.00;;
61116;SDS011;47002;50.856;6.580;2022-09-21T11:54:34;0.00;;;0.00;;
61116;SDS011;47002;50.856;6.580;2022-09-21T11:57:15;0.00;;;0.00;;
61116;SDS011;47002;50.856;6.580;2022-09-21T12:02:35;0.00;;;0.00;;
61116;SDS011;47002;50.856;6.580;2022-09-21T12:05:34;0.00;;;0.00;;
61116;SDS011;47002;50.856;6.580;2022-09-21T12:08:10;0.00;;;0.00;;
61116;SDS011;47002;50.856;6.580;2022-09-21T12:10:54;0.00;;;0.00;;
61116;SDS011;47002;50.856;6.580;2022-09-21T12:13:28;0.00;;;0.00;;
61116;SDS011;47002;50.856;6.580;2022-09-21T12:16:01;0.00;;;0.00;;
61116;SDS011;47002;50.856;6.580;2022-09-21T12:18:35;0.00;;;0.00;;
61116;SDS011;47002;50.856;6.580;2022-09-21T12:21:08;0.00;;;0.00;;
61116;SDS011;47002;50.856;6.580;2022-09-21T12:23:40;0.00;;;0.00;;
61116;SDS011;47002;50.856;6.580;2022-09-21T12:26:07;0.00;;;0.00;;
61116;SDS011;47002;50.856;6.580;2022-09-21T12:28:37;0.00;;;0.00;;
61116;SDS011;47002;50.856;6.580;2022-09-21T12:31:08;0.00;;;0.00;;
61116;SDS011;47002;50.856;6.580;2022-09-21T12:33:40;0.00;;;0.00;;
61116;SDS011;47002;50.856;6.580;2022-09-21T12:36:15;0.00;;;0.00;;
61116;SDS011;47002;50.856;6.580;2022-09-21T12:41:14;0.00;;;0.00;;
61116;SDS011;47002;50.856;6.580;2022-09-21T12:43:45;0.00;;;0.00;;
61116;SDS011;47002;50.856;6.580;2022-09-21T12:46:16;0.00;;;0.00;;
61116;SDS011;47002;50.856;6.580;2022-09-21T12:48:45;0.00;;;0.00;;
61116;SDS011;47002;50.856;6.580;2022-09-21T12:51:15;0.00;;;0.00;;
61116;SDS011;47002;50.856;6.580;2022-09-21T12:53:45;0.00;;;0.00;;
61116;SDS011;47002;50.856;6.580;2022-09-21T12:56:14;0.00;;;0.00;;
61116;SDS011;47002;50.856;6.580;2022-09-21T12:58:57;0.00;;;0.00;;
61116;SDS011;47002;50.856;6.580;2022-09-21T13:01:33;0.00;;;0.00;;
61116;SDS011;47002;50.856;6.580;2022-09-21T13:04:11;0.00;;;0.00;;
61116;SDS011;47002;50.856;6.580;2022-09-21T13:12:09;0.00;;;0.00;;
61116;SDS011;47002;50.856;6.580;2022-09-21T13:14:40;0.00;;;0.00;;
61116;SDS011;47002;50.856;6.580;2022-09-21T13:17:15;0.00;;;0.00;;
61116;SDS011;47002;50.856;6.580;2022-09-21T13:19:44;0.00;;;0.00;;
61116;SDS011;47002;50.856;6.580;2022-09-21T13:22:24;0.10;;;0.10;;
61116;SDS011;47002;50.856;6.580;2022-09-21T13:24:57;0.10;;;0.10;;
61116;SDS011;47002;50.856;6.580;2022-09-21T13:30:27;0.20;;;0.20;;
61116;SDS011;47002;50.856;6.580;2022-09-21T13:32:59;0.20;;;0.20;;
61116;SDS011;47002;50.856;6.580;2022-09-21T13:38:24;0.30;;;0.30;;
61116;SDS011;47002;50.856;6.580;2022-09-21T13:40:55;0.40;;;0.40;;
61116;SDS011;47002;50.856;6.580;2022-09-21T13:46:48;0.50;;;0.50;;
61116;SDS011;47002;50.856;6.580;2022-09-21T13:52:03;0.70;;;0.60;;
61116;SDS011;47002;50.856;6.580;2022-09-21T13:54:34;0.70;;;0.70;;
61116;SDS011;47002;50.856;6.580;2022-09-21T13:57:15;0.80;;;0.77;;
61116;SDS011;47002;50.856;6.580;2022-09-21T13:59:43;0.80;;;0.80;;
61116;SDS011;47002;50.856;6.580;2022-09-21T14:02:27;0.90;;;0.90;;
61116;SDS011;47002;50.856;6.580;2022-09-21T14:04:56;1.15;;;1.05;;
61116;SDS011;47002;50.856;6.580;2022-09-21T14:07:27;1.20;;;1.10;;
61116;SDS011;47002;50.856;6.580;2022-09-21T14:09:56;1.40;;;1.30;;
61116;SDS011;47002;50.856;6.580;2022-09-21T14:12:25;1.50;;;1.40;;
61116;SDS011;47002;50.856;6.580;2022-09-21T14:15:09;1.60;;;1.50;;
61116;SDS011;47002;50.856;6.580;2022-09-21T14:21:07;1.90;;;1.80;;
61116;SDS011;47002;50.856;6.580;2022-09-21T14:23:35;2.17;;;2.08;;
61116;SDS011;47002;50.856;6.580;2022-09-21T14:26:17;2.40;;;2.30;;
61116;SDS011;47002;50.856;6.580;2022-09-21T14:28:45;2.40;;;2.30;;
61116;SDS011;47002;50.856;6.580;2022-09-21T14:31:16;2.70;;;2.60;;
61116;SDS011;47002;50.856;6.580;2022-09-21T14:33:45;2.40;;;2.30;;
61116;SDS011;47002;50.856;6.580;2022-09-21T14:36:14;2.50;;;2.40;;
61116;SDS011;47002;50.856;6.580;2022-09-21T14:38:46;2.60;;;2.50;;
61116;SDS011;47002;50.856;6.580;2022-09-21T14:41:17;2.88;;;2.78;;
61116;SDS011;47002;50.856;6.580;2022-09-21T14:43:47;2.85;;;2.75;;
61116;SDS011;47002;50.856;6.580;2022-09-21T14:46:20;2.72;;;2.63;;
61116;SDS011;47002;50.856;6.580;2022-09-21T14:48:58;2.55;;;2.45;;
61116;SDS011;47002;50.856;6.580;2022-09-21T14:51:35;2.50;;;2.40;;
61116;SDS011;47002;50.856;6.580;2022-09-21T14:54:11;2.60;;;2.50;;
61116;SDS011;47002;50.856;6.580;2022-09-21T14:56:56;2.60;;;2.50;;
61116;SDS011;47002;50.856;6.580;2022-09-21T15:02:31;2.90;;;2.80;;
61116;SDS011;47002;50.856;6.580;2022-09-21T15:05:03;3.00;;;2.90;;
61116;SDS011;47002;50.856;6.580;2022-09-21T15:07:38;2.97;;;2.88;;
61116;SDS011;47002;50.856;6.580;2022-09-21T15:10:13;3.30;;;3.10;;
61116;SDS011;47002;50.856;6.580;2022-09-21T15:12:49;3.25;;;3.05;;
61116;SDS011;47002;50.856;6.580;2022-09-21T15:15:22;3.17;;;2.97;;
61116;SDS011;47002;50.856;6.580;2022-09-21T15:17:57;2.60;;;2.50;;
61116;SDS011;47002;50.856;6.580;2022-09-21T15:20:24;2.42;;;2.33;;
61116;SDS011;47002;50.856;6.580;2022-09-21T15:22:52;2.40;;;2.30;;
61116;SDS011;47002;50.856;6.580;2022-09-21T15:25:18;2.40;;;2.30;;
61116;SDS011;47002;50.856;6.580;2022-09-21T15:27:46;2.38;;;2.28;;
61116;SDS011;47002;50.856;6.580;2022-09-21T15:30:17;2.40;;;2.30;;
61116;SDS011;47002;50.856;6.580;2022-09-21T15:32:45;2.50;;;2.40;;
61116;SDS011;47002;50.856;6.580;2022-09-21T15:35:15;2.50;;;2.40;;
61116;SDS011;47002;50.856;6.580;2022-09-21T15:37:42;2.63;;;2.53;;
61116;SDS011;47002;50.856;6.580;2022-09-21T15:40:14;2.60;;;2.50;;
61116;SDS011;47002;50.856;6.580;2022-09-21T15:42:50;2.60;;;2.50;;
61116;SDS011;47002;50.856;6.580;2022-09-21T15:45:23;2.90;;;2.80;;
61116;SDS011;47002;50.856;6.580;2022-09-21T15:47:51;2.90;;;2.80;;